sensor_id;sensor_type;location;lat;lon;timestamp;pressure;altitude;pressure_sealevel;temperature;humidity
35888;BME280;21990;42.540;23.496;2023-04-23T00:01:17;93486.69;;;6.58;83.70
35888;BME280;21990;42.540;23.496;2023-04-23T00:03:43;93484.91;;;6.55;84.06
35888;BME280;21990;42.540;23.496;2023-04-23T00:06:10;93491.78;;;6.59;83.84
35888;BME280;21990;42.540;23.496;2023-04-23T00:08:40;93481.59;;;6.51;83.86
35888;BME280;21990;42.540;23.496;2023-04-23T00:11:06;93490.53;;;6.44;84.37
35888;BME280;21990;42.540;23.496;2023-04-23T00:13:33;93482.88;;;6.44;84.53
35888;BME280;21990;42.540;23.496;2023-04-23T00:15:59;93486.69;;;6.47;85.11
35888;BME280;21990;42.540;23.496;2023-04-23T00:18:25;93483.41;;;6.48;85.84
35888;BME280;21990;42.540;23.496;2023-04-23T00:20:50;93482.38;;;6.40;85.91
35888;BME280;21990;42.540;23.496;2023-04-23T00:23:16;93497.13;;;6.46;85.86
35888;BME280;21990;42.540;23.496;2023-04-23T00:25:42;93494.31;;;6.46;86.15
35888;BME280;21990;42.540;23.496;2023-04-23T00:28:07;93486.97;;;6.49;86.60
35888;BME280;21990;42.540;23.496;2023-04-23T00:30:33;93492.56;;;6.54;87.06
35888;BME280;21990;42.540;23.496;2023-04-23T00:32:58;93491.56;;;6.57;87.06
35888;BME280;21990;42.540;23.496;2023-04-23T00:35:24;93489.25;;;6.56;87.44
35888;BME280;21990;42.540;23.496;2023-04-23T00:37:50;93489.25;;;6.56;88.08
35888;BME280;21990;42.540;23.496;2023-04-23T00:40:16;93489.75;;;6.54;88.24
35888;BME280;21990;42.540;23.496;2023-04-23T00:42:42;93487.47;;;6.42;88.67
35888;BME280;21990;42.540;23.496;2023-04-23T00:45:09;93485.19;;;6.46;88.78
35888;BME280;21990;42.540;23.496;2023-04-23T00:47:35;93488.75;;;6.41;88.67
35888;BME280;21990;42.540;23.496;2023-04-23T00:50:01;93492.81;;;6.40;89.54
35888;BME280;21990;42.540;23.496;2023-04-23T00:52:28;93490.03;;;6.45;89.76
35888;BME280;21990;42.540;23.496;2023-04-23T00:54:54;93494.59;;;6.48;89.50
35888;BME280;21990;42.540;23.496;2023-04-23T00:57:21;93483.63;;;6.50;89.50
35888;BME280;21990;42.540;23.496;2023-04-23T00:59:47;93491.78;;;6.54;89.20
35888;BME280;21990;42.540;23.496;2023-04-23T01:02:13;93490.53;;;6.55;89.24
35888;BME280;21990;42.540;23.496;2023-04-23T01:04:40;93491.03;;;6.59;89.41
35888;BME280;21990;42.540;23.496;2023-04-23T01:07:07;93492.56;;;6.54;90.23
35888;BME280;21990;42.540;23.496;2023-04-23T01:09:33;93492.06;;;6.34;90.15
35888;BME280;21990;42.540;23.496;2023-04-23T01:11:59;93495.09;;;6.25;89.43
35888;BME280;21990;42.540;23.496;2023-04-23T01:14:27;93492.75;;;6.12;89.57
35888;BME280;21990;42.540;23.496;2023-04-23T01:16:52;93490.22;;;6.03;89.28
35888;BME280;21990;42.540;23.496;2023-04-23T01:19:18;93483.78;;;5.86;90.08
35888;BME280;21990;42.540;23.496;2023-04-23T01:21:44;93483.25;;;5.76;90.57
35888;BME280;21990;42.540;23.496;2023-04-23T01:24:11;93484.78;;;5.71;90.92
35888;BME280;21990;42.540;23.496;2023-04-23T01:26:38;93490.59;;;5.68;91.52
35888;BME280;21990;42.540;23.496;2023-04-23T01:29:03;93488.63;;;5.80;91.96
35888;BME280;21990;42.540;23.496;2023-04-23T01:31:29;93489.44;;;5.97;91.75
35888;BME280;21990;42.540;23.496;2023-04-23T01:33:56;93495.81;;;6.08;91.52
35888;BME280;21990;42.540;23.496;2023-04-23T01:36:25;93496.84;;;6.16;91.75
35888;BME280;21990;42.540;23.496;2023-04-23T01:38:51;93488.47;;;6.22;91.31
35888;BME280;21990;42.540;23.496;2023-04-23T01:41:17;93481.09;;;6.25;91.34
35888;BME280;21990;42.540;23.496;2023-04-23T01:43:43;93495.09;;;6.36;91.52
35888;BME280;21990;42.540;23.496;2023-04-23T01:46:09;93500.69;;;6.36;91.33
35888;BME280;21990;42.540;23.496;2023-04-23T01:48:36;93493.28;;;6.10;92.02
35888;BME280;21990;42.540;23.496;2023-04-23T01:51:01;93495.06;;;6.13;92.62
35888;BME280;21990;42.540;23.496;2023-04-23T01:53:27;93490.44;;;5.94;93.66
35888;BME280;21990;42.540;23.496;2023-04-23T01:55:54;93495.78;;;5.92;94.38
35888;BME280;21990;42.540;23.496;2023-04-23T01:58:21;93499.78;;;5.85;94.88
35888;BME280;21990;42.540;23.496;2023-04-23T02:00:50;93501.34;;;5.86;95.56
35888;BME280;21990;42.540;23.496;2023-04-23T02:03:16;93506.22;;;5.91;95.88
35888;BME280;21990;42.540;23.496;2023-04-23T02:05:42;93498.84;;;5.99;96.05
35888;BME280;21990;42.540;23.496;2023-04-23T02:08:08;93500.88;;;6.04;96.67
35888;BME280;21990;42.540;23.496;2023-04-23T02:10:33;93499.91;;;6.18;96.33
35888;BME280;21990;42.540;23.496;2023-04-23T02:13:00;93495.09;;;6.25;96.52
35888;BME280;21990;42.540;23.496;2023-04-23T02:15:26;93500.91;;;6.27;96.41
35888;BME280;21990;42.540;23.496;2023-04-23T02:17:51;93492.28;;;6.25;96.86
35888;BME280;21990;42.540;23.496;2023-04-23T02:20:18;93491.78;;;6.20;96.24
35888;BME280;21990;42.540;23.496;2023-04-23T02:22:44;93491.78;;;6.37;96.28
35888;BME280;21990;42.540;23.496;2023-04-23T02:25:11;93494.34;;;6.41;95.97
35888;BME280;21990;42.540;23.496;2023-04-23T02:27:36;93496.13;;;6.49;95.92
35888;BME280;21990;42.540;23.496;2023-04-23T02:30:02;93491.78;;;6.59;94.79
35888;BME280;21990;42.540;23.496;2023-04-23T02:32:28;93494.84;;;6.67;94.65
35888;BME280;21990;42.540;23.496;2023-04-23T02:34:55;93494.84;;;6.67;94.36
35888;BME280;21990;42.540;23.496;2023-04-23T02:37:20;93491.78;;;6.37;93.62
35888;BME280;21990;42.540;23.496;2023-04-23T02:39:46;93489.72;;;6.21;93.41
35888;BME280;21990;42.540;23.496;2023-04-23T02:42:12;93488.47;;;6.22;93.63
35888;BME280;21990;42.540;23.496;2023-04-23T02:44:37;93484.66;;;6.14;93.96
35888;BME280;21990;42.540;23.496;2023-04-23T02:47:03;93493.03;;;6.31;94.01
35888;BME280;21990;42.540;23.496;2023-04-23T02:49:29;93498.13;;;6.27;93.72
35888;BME280;21990;42.540;23.496;2023-04-23T02:51:55;93492.78;;;6.29;93.59
35888;BME280;21990;42.540;23.496;2023-04-23T02:54:20;93495.88;;;6.42;92.97
35888;BME280;21990;42.540;23.496;2023-04-23T02:56:46;93499.16;;;6.51;93.01
35888;BME280;21990;42.540;23.496;2023-04-23T02:59:12;93498.41;;;6.62;93.00
35888;BME280;21990;42.540;23.496;2023-04-23T03:01:37;93492.56;;;6.71;92.46
35888;BME280;21990;42.540;23.496;2023-04-23T03:04:03;93495.63;;;6.67;92.05
35888;BME280;21990;42.540;23.496;2023-04-23T03:06:29;93497.63;;;6.61;91.68
35888;BME280;21990;42.540;23.496;2023-04-23T03:08:56;93490.03;;;6.45;92.53
35888;BME280;21990;42.540;23.496;2023-04-23T03:11:22;93494.84;;;6.61;92.67
35888;BME280;21990;42.540;23.496;2023-04-23T03:13:47;93500.97;;;6.71;92.16
35888;BME280;21990;42.540;23.496;2023-04-23T03:16:13;93499.44;;;6.76;91.61
35888;BME280;21990;42.540;23.496;2023-04-23T03:18:39;93500.44;;;6.78;91.86
35888;BME280;21990;42.540;23.496;2023-04-23T03:21:04;93508.84;;;6.67;90.74
35888;BME280;21990;42.540;23.496;2023-04-23T03:23:30;93514.44;;;6.61;91.17
35888;BME280;21990;42.540;23.496;2023-04-23T03:25:56;93506.03;;;6.67;91.48
35888;BME280;21990;42.540;23.496;2023-04-23T03:28:22;93507.81;;;6.70;91.84
35888;BME280;21990;42.540;23.496;2023-04-23T03:30:47;93516.22;;;6.70;91.79
35888;BME280;21990;42.540;23.496;2023-04-23T03:33:13;93522.34;;;6.68;91.62
35888;BME280;21990;42.540;23.496;2023-04-23T03:35:38;93515.47;;;6.58;91.64
35888;BME280;21990;42.540;23.496;2023-04-23T03:38:04;93504.53;;;6.72;91.83
35888;BME280;21990;42.540;23.496;2023-04-23T03:40:30;93511.91;;;6.75;91.60
35888;BME280;21990;42.540;23.496;2023-04-23T03:42:55;93518.00;;;6.56;91.48
35888;BME280;21990;42.540;23.496;2023-04-23T03:45:22;93519.78;;;6.43;91.23
35888;BME280;21990;42.540;23.496;2023-04-23T03:47:47;93527.38;;;6.31;91.08
35888;BME280;21990;42.540;23.496;2023-04-23T03:50:13;93519.53;;;6.41;91.64
35888;BME280;21990;42.540;23.496;2023-04-23T03:52:39;93515.94;;;6.29;91.45
35888;BME280;21990;42.540;23.496;2023-04-23T03:55:05;93530.69;;;6.18;92.77
35888;BME280;21990;42.540;23.496;2023-04-23T03:57:31;93522.28;;;6.24;93.41
35888;BME280;21990;42.540;23.496;2023-04-23T03:59:57;93531.19;;;6.28;93.17
35888;BME280;21990;42.540;23.496;2023-04-23T04:02:22;93526.63;;;6.25;93.73
35888;BME280;21990;42.540;23.496;2023-04-23T04:04:48;93531.97;;;6.40;93.48
35888;BME280;21990;42.540;23.496;2023-04-23T04:07:16;93538.59;;;6.37;93.06
35888;BME280;21990;42.540;23.496;2023-04-23T04:09:41;93532.22;;;6.31;93.05
35888;BME280;21990;42.540;23.496;2023-04-23T04:12:07;93537.28;;;6.27;93.31
35888;BME280;21990;42.540;23.496;2023-04-23T04:14:32;93530.72;;;6.30;93.44
35888;BME280;21990;42.540;23.496;2023-04-23T04:16:58;93541.66;;;6.33;93.79
35888;BME280;21990;42.540;23.496;2023-04-23T04:19:24;93546.97;;;6.31;95.14
35888;BME280;21990;42.540;23.496;2023-04-23T04:21:50;93546.97;;;6.14;95.20
35888;BME280;21990;42.540;23.496;2023-04-23T04:24:16;93555.84;;;6.13;96.48
35888;BME280;21990;42.540;23.496;2023-04-23T04:26:43;93552.53;;;6.09;96.37
35888;BME280;21990;42.540;23.496;2023-04-23T04:29:10;93558.09;;;5.98;97.16
35888;BME280;21990;42.540;23.496;2023-04-23T04:31:36;93551.69;;;5.86;97.13
35888;BME280;21990;42.540;23.496;2023-04-23T04:34:02;93559.28;;;5.86;97.95
35888;BME280;21990;42.540;23.496;2023-04-23T04:36:27;93555.94;;;5.76;97.77
35888;BME280;21990;42.540;23.496;2023-04-23T04:38:54;93558.72;;;5.76;98.28
35888;BME280;21990;42.540;23.496;2023-04-23T04:41:26;93551.63;;;5.81;98.25
35888;BME280;21990;42.540;23.496;2023-04-23T04:43:52;93553.22;;;5.87;98.39
35888;BME280;21990;42.540;23.496;2023-04-23T04:46:19;93564.69;;;5.95;98.07
35888;BME280;21990;42.540;23.496;2023-04-23T04:48:46;93567.00;;;6.07;98.07
35888;BME280;21990;42.540;23.496;2023-04-23T04:51:11;93565.28;;;6.21;97.67
35888;BME280;21990;42.540;23.496;2023-04-23T04:53:37;93558.41;;;6.28;97.19
35888;BME280;21990;42.540;23.496;2023-04-23T04:56:02;93566.59;;;6.48;97.82
35888;BME280;21990;42.540;23.496;2023-04-23T04:58:28;93566.09;;;6.55;96.22
35888;BME280;21990;42.540;23.496;2023-04-23T05:00:54;93564.34;;;6.63;95.44
35888;BME280;21990;42.540;23.496;2023-04-23T05:03:20;93572.72;;;6.63;94.88
35888;BME280;21990;42.540;23.496;2023-04-23T05:05:46;93573.47;;;6.58;94.69
35888;BME280;21990;42.540;23.496;2023-04-23T05:08:15;93558.25;;;6.76;94.19
35888;BME280;21990;42.540;23.496;2023-04-23T05:10:45;93569.69;;;6.89;93.50
35888;BME280;21990;42.540;23.496;2023-04-23T05:13:11;93575.81;;;6.87;92.93
35888;BME280;21990;42.540;23.496;2023-04-23T05:15:36;93570.97;;;6.88;92.54
35888;BME280;21990;42.540;23.496;2023-04-23T05:18:03;93572.75;;;6.96;92.69
35888;BME280;21990;42.540;23.496;2023-04-23T05:20:29;93574.78;;;7.01;92.19
35888;BME280;21990;42.540;23.496;2023-04-23T05:22:55;93572.75;;;7.13;92.05
35888;BME280;21990;42.540;23.496;2023-04-23T05:25:23;93568.41;;;7.23;92.24
35888;BME280;21990;42.540;23.496;2023-04-23T05:27:49;93566.84;;;7.28;92.66
35888;BME280;21990;42.540;23.496;2023-04-23T05:30:15;93560.00;;;7.34;93.33
35888;BME280;21990;42.540;23.496;2023-04-23T05:32:41;93568.34;;;7.56;94.42
35888;BME280;21990;42.540;23.496;2023-04-23T05:35:07;93571.13;;;7.73;94.41
35888;BME280;21990;42.540;23.496;2023-04-23T05:37:32;93564.41;;;7.87;93.35
35888;BME280;21990;42.540;23.496;2023-04-23T05:39:58;93563.50;;;8.26;95.47
35888;BME280;21990;42.540;23.496;2023-04-23T05:42:24;93563.00;;;8.68;93.98
35888;BME280;21990;42.540;23.496;2023-04-23T05:44:49;93562.91;;;8.85;89.73
35888;BME280;21990;42.540;23.496;2023-04-23T05:47:15;93556.41;;;9.01;90.78
35888;BME280;21990;42.540;23.496;2023-04-23T05:49:40;93561.81;;;9.53;90.57
35888;BME280;21990;42.540;23.496;2023-04-23T05:52:06;93554.84;;;9.60;85.74
35888;BME280;21990;42.540;23.496;2023-04-23T05:54:32;93555.84;;;9.62;86.15
35888;BME280;21990;42.540;23.496;2023-04-23T05:56:57;93556.94;;;9.78;85.72
35888;BME280;21990;42.540;23.496;2023-04-23T05:59:23;93551.16;;;9.94;84.58
35888;BME280;21990;42.540;23.496;2023-04-23T06:01:49;93553.06;;;10.48;85.75
35888;BME280;21990;42.540;23.496;2023-04-23T06:04:15;93552.00;;;11.02;83.39
35888;BME280;21990;42.540;23.496;2023-04-23T06:06:42;93550.66;;;11.21;81.71
35888;BME280;21990;42.540;23.496;2023-04-23T06:09:08;93540.38;;;11.24;79.20
35888;BME280;21990;42.540;23.496;2023-04-23T06:11:33;93543.47;;;11.52;78.12
35888;BME280;21990;42.540;23.496;2023-04-23T06:14:01;93547.84;;;11.66;77.07
35888;BME280;21990;42.540;23.496;2023-04-23T06:16:26;93539.91;;;11.65;76.85
35888;BME280;21990;42.540;23.496;2023-04-23T06:18:52;93545.66;;;11.46;76.24
35888;BME280;21990;42.540;23.496;2023-04-23T06:21:18;93538.59;;;11.39;76.94
35888;BME280;21990;42.540;23.496;2023-04-23T06:23:44;93539.63;;;11.23;77.47
35888;BME280;21990;42.540;23.496;2023-04-23T06:26:10;93538.00;;;11.28;77.35
35888;BME280;21990;42.540;23.496;2023-04-23T06:28:35;93539.47;;;11.48;81.50
35888;BME280;21990;42.540;23.496;2023-04-23T06:31:01;93547.13;;;11.92;77.05
35888;BME280;21990;42.540;23.496;2023-04-23T06:33:27;93540.94;;;12.07;75.60
35888;BME280;21990;42.540;23.496;2023-04-23T06:35:52;93537.47;;;12.27;74.92
35888;BME280;21990;42.540;23.496;2023-04-23T06:38:18;93542.44;;;12.34;76.12
35888;BME280;21990;42.540;23.496;2023-04-23T06:40:45;93547.50;;;12.62;74.25
35888;BME280;21990;42.540;23.496;2023-04-23T06:43:11;93537.72;;;12.97;73.53
35888;BME280;21990;42.540;23.496;2023-04-23T06:45:36;93540.28;;;12.87;72.85
35888;BME280;21990;42.540;23.496;2023-04-23T06:48:02;93535.00;;;12.57;72.49
35888;BME280;21990;42.540;23.496;2023-04-23T06:50:27;93542.34;;;12.40;72.96
35888;BME280;21990;42.540;23.496;2023-04-23T06:52:53;93539.44;;;12.79;72.45
35888;BME280;21990;42.540;23.496;2023-04-23T06:55:20;93542.94;;;12.72;71.49
35888;BME280;21990;42.540;23.496;2023-04-23T06:57:51;93543.09;;;12.40;72.57
35888;BME280;21990;42.540;23.496;2023-04-23T07:00:16;93545.59;;;12.44;72.50
35888;BME280;21990;42.540;23.496;2023-04-23T07:02:43;93535.78;;;12.58;74.46
35888;BME280;21990;42.540;23.496;2023-04-23T07:05:09;93539.63;;;12.34;71.95
35888;BME280;21990;42.540;23.496;2023-04-23T07:07:34;93538.31;;;12.22;72.04
35888;BME280;21990;42.540;23.496;2023-04-23T07:10:02;93539.41;;;12.32;73.96
35888;BME280;21990;42.540;23.496;2023-04-23T07:12:28;93535.16;;;12.38;72.88
35888;BME280;21990;42.540;23.496;2023-04-23T07:14:53;93540.47;;;12.42;72.47
35888;BME280;21990;42.540;23.496;2023-04-23T07:17:19;93532.13;;;12.83;72.25
35888;BME280;21990;42.540;23.496;2023-04-23T07:19:45;93535.31;;;13.14;70.19
35888;BME280;21990;42.540;23.496;2023-04-23T07:22:10;93529.75;;;13.08;69.74
35888;BME280;21990;42.540;23.496;2023-04-23T07:24:36;93528.56;;;12.83;70.00
35888;BME280;21990;42.540;23.496;2023-04-23T07:27:01;93533.44;;;12.82;70.65
35888;BME280;21990;42.540;23.496;2023-04-23T07:29:27;93532.50;;;13.01;69.16
35888;BME280;21990;42.540;23.496;2023-04-23T07:31:53;93526.00;;;13.26;69.98
35888;BME280;21990;42.540;23.496;2023-04-23T07:34:18;93527.38;;;13.33;69.53
35888;BME280;21990;42.540;23.496;2023-04-23T07:36:44;93521.56;;;13.59;69.54
35888;BME280;21990;42.540;23.496;2023-04-23T07:39:09;93526.19;;;13.70;68.56
35888;BME280;21990;42.540;23.496;2023-04-23T07:41:35;93531.34;;;13.79;69.10
35888;BME280;21990;42.540;23.496;2023-04-23T07:44:01;93532.28;;;14.02;67.58
35888;BME280;21990;42.540;23.496;2023-04-23T07:46:27;93538.69;;;14.03;66.55
35888;BME280;21990;42.540;23.496;2023-04-23T07:48:53;93524.78;;;14.12;66.35
35888;BME280;21990;42.540;23.496;2023-04-23T07:51:18;93524.94;;;14.35;65.85
35888;BME280;21990;42.540;23.496;2023-04-23T07:53:44;93520.78;;;14.36;64.00
35888;BME280;21990;42.540;23.496;2023-04-23T07:56:11;93518.63;;;14.57;64.05
35888;BME280;21990;42.540;23.496;2023-04-23T07:58:37;93519.28;;;14.35;60.24
35888;BME280;21990;42.540;23.496;2023-04-23T08:01:02;93514.84;;;14.26;62.15
35888;BME280;21990;42.540;23.496;2023-04-23T08:03:28;93530.09;;;14.16;62.03
35888;BME280;21990;42.540;23.496;2023-04-23T08:05:53;93517.25;;;14.15;62.32
35888;BME280;21990;42.540;23.496;2023-04-23T08:08:21;93520.28;;;14.45;64.41
35888;BME280;21990;42.540;23.496;2023-04-23T08:10:47;93516.19;;;14.33;59.54
35888;BME280;21990;42.540;23.496;2023-04-23T08:13:13;93509.13;;;14.47;59.33
35888;BME280;21990;42.540;23.496;2023-04-23T08:15:38;93523.75;;;14.59;61.29
35888;BME280;21990;42.540;23.496;2023-04-23T08:18:04;93515.97;;;14.59;59.73
35888;BME280;21990;42.540;23.496;2023-04-23T08:20:30;93516.22;;;14.69;58.04
35888;BME280;21990;42.540;23.496;2023-04-23T08:22:56;93522.94;;;15.02;56.55
35888;BME280;21990;42.540;23.496;2023-04-23T08:25:22;93507.47;;;15.26;56.34
35888;BME280;21990;42.540;23.496;2023-04-23T08:27:47;93516.19;;;15.35;57.59
35888;BME280;21990;42.540;23.496;2023-04-23T08:30:13;93507.13;;;15.37;57.23
35888;BME280;21990;42.540;23.496;2023-04-23T08:32:39;93509.22;;;15.36;55.82
35888;BME280;21990;42.540;23.496;2023-04-23T08:35:08;93509.78;;;15.42;58.86
35888;BME280;21990;42.540;23.496;2023-04-23T08:37:33;93501.09;;;15.48;57.11
35888;BME280;21990;42.540;23.496;2023-04-23T08:40:00;93499.72;;;15.49;58.47
35888;BME280;21990;42.540;23.496;2023-04-23T08:45:07;93497.13;;;15.66;55.55
35888;BME280;21990;42.540;23.496;2023-04-23T08:47:33;93492.78;;;15.57;56.69
35888;BME280;21990;42.540;23.496;2023-04-23T08:50:00;93497.69;;;15.64;57.25
35888;BME280;21990;42.540;23.496;2023-04-23T08:52:32;93484.81;;;15.79;59.34
35888;BME280;21990;42.540;23.496;2023-04-23T08:55:00;93498.25;;;15.93;57.75
35888;BME280;21990;42.540;23.496;2023-04-23T08:57:26;93487.84;;;15.88;60.46
35888;BME280;21990;42.540;23.496;2023-04-23T08:59:52;93494.28;;;15.89;57.11
35888;BME280;21990;42.540;23.496;2023-04-23T09:02:17;93492.75;;;16.03;56.75
35888;BME280;21990;42.540;23.496;2023-04-23T09:04:46;93480.44;;;16.00;56.13
35888;BME280;21990;42.540;23.496;2023-04-23T09:07:12;93480.16;;;16.36;57.53
35888;BME280;21990;42.540;23.496;2023-04-23T09:09:39;93478.59;;;16.50;54.11
35888;BME280;21990;42.540;23.496;2023-04-23T09:12:06;93482.03;;;16.49;54.04
35888;BME280;21990;42.540;23.496;2023-04-23T09:14:33;93483.69;;;16.67;55.30
35888;BME280;21990;42.540;23.496;2023-04-23T09:16:59;93472.38;;;16.92;56.42
35888;BME280;21990;42.540;23.496;2023-04-23T09:19:26;93480.13;;;17.31;52.35
35888;BME280;21990;42.540;23.496;2023-04-23T09:21:52;93477.34;;;17.16;49.09
35888;BME280;21990;42.540;23.496;2023-04-23T09:24:21;93470.59;;;17.36;50.59
35888;BME280;21990;42.540;23.496;2023-04-23T09:26:48;93463.03;;;17.31;49.77
35888;BME280;21990;42.540;23.496;2023-04-23T09:29:18;93475.75;;;17.30;50.59
35888;BME280;21990;42.540;23.496;2023-04-23T09:31:45;93467.09;;;17.21;49.91
35888;BME280;21990;42.540;23.496;2023-04-23T09:34:14;93470.00;;;17.38;50.22
35888;BME280;21990;42.540;23.496;2023-04-23T09:36:41;93462.34;;;17.48;50.48
35888;BME280;21990;42.540;23.496;2023-04-23T09:39:14;93470.44;;;17.59;52.07
35888;BME280;21990;42.540;23.496;2023-04-23T09:41:41;93457.00;;;17.52;50.92
35888;BME280;21990;42.540;23.496;2023-04-23T09:44:07;93457.34;;;17.56;48.88
35888;BME280;21990;42.540;23.496;2023-04-23T09:46:41;93457.00;;;17.27;49.88
35888;BME280;21990;42.540;23.496;2023-04-23T09:49:09;93450.69;;;17.04;50.83
35888;BME280;21990;42.540;23.496;2023-04-23T09:51:39;93441.44;;;16.96;51.19
35888;BME280;21990;42.540;23.496;2023-04-23T09:54:15;93442.44;;;16.83;51.15
35888;BME280;21990;42.540;23.496;2023-04-23T09:56:41;93442.84;;;16.80;51.51
35888;BME280;21990;42.540;23.496;2023-04-23T09:59:23;93437.91;;;17.13;50.23
35888;BME280;21990;42.540;23.496;2023-04-23T10:01:49;93444.13;;;17.19;50.79
35888;BME280;21990;42.540;23.496;2023-04-23T10:04:22;93438.25;;;17.17;48.83
35888;BME280;21990;42.540;23.496;2023-04-23T10:06:55;93438.94;;;17.00;47.71
35888;BME280;21990;42.540;23.496;2023-04-23T10:09:22;93429.97;;;17.11;48.81
35888;BME280;21990;42.540;23.496;2023-04-23T10:11:53;93429.81;;;17.01;48.10
35888;BME280;21990;42.540;23.496;2023-04-23T10:14:20;93436.00;;;17.15;48.55
35888;BME280;21990;42.540;23.496;2023-04-23T10:16:46;93423.09;;;17.14;48.14
35888;BME280;21990;42.540;23.496;2023-04-23T10:19:17;93420.72;;;17.03;48.97
35888;BME280;21990;42.540;23.496;2023-04-23T10:21:45;93420.66;;;17.35;53.45
35888;BME280;21990;42.540;23.496;2023-04-23T10:24:13;93415.44;;;17.49;47.83
35888;BME280;21990;42.540;23.496;2023-04-23T10:26:44;93408.16;;;17.55;48.49
35888;BME280;21990;42.540;23.496;2023-04-23T10:29:13;93406.03;;;17.64;46.76
35888;BME280;21990;42.540;23.496;2023-04-23T10:31:41;93415.38;;;17.56;46.17
35888;BME280;21990;42.540;23.496;2023-04-23T10:34:09;93402.41;;;17.38;47.21
35888;BME280;21990;42.540;23.496;2023-04-23T10:36:37;93410.38;;;17.40;45.62
35888;BME280;21990;42.540;23.496;2023-04-23T10:39:03;93409.72;;;17.24;46.06
35888;BME280;21990;42.540;23.496;2023-04-23T10:41:37;93414.00;;;17.16;46.70
35888;BME280;21990;42.540;23.496;2023-04-23T10:44:04;93408.94;;;17.31;49.25
35888;BME280;21990;42.540;23.496;2023-04-23T10:46:31;93403.84;;;17.47;49.79
35888;BME280;21990;42.540;23.496;2023-04-23T10:49:14;93400.78;;;17.52;46.85
35888;BME280;21990;42.540;23.496;2023-04-23T10:51:41;93406.94;;;17.41;46.47
35888;BME280;21990;42.540;23.496;2023-04-23T10:54:12;93400.97;;;17.30;46.80
35888;BME280;21990;42.540;23.496;2023-04-23T10:56:39;93395.44;;;17.07;46.58
35888;BME280;21990;42.540;23.496;2023-04-23T10:59:07;93401.50;;;17.11;50.77
35888;BME280;21990;42.540;23.496;2023-04-23T11:01:33;93400.84;;;17.20;48.55
35888;BME280;21990;42.540;23.496;2023-04-23T11:04:18;93397.69;;;17.08;47.18
35888;BME280;21990;42.540;23.496;2023-04-23T11:09:39;93393.41;;;17.00;47.66
35888;BME280;21990;42.540;23.496;2023-04-23T11:12:07;93397.53;;;17.06;45.50
35888;BME280;21990;42.540;23.496;2023-04-23T11:14:45;93398.41;;;17.17;45.59
35888;BME280;21990;42.540;23.496;2023-04-23T11:17:12;93394.34;;;17.27;46.41
35888;BME280;21990;42.540;23.496;2023-04-23T11:19:39;93390.09;;;17.36;44.85
35888;BME280;21990;42.540;23.496;2023-04-23T11:22:13;93397.78;;;16.93;44.07
35888;BME280;21990;42.540;23.496;2023-04-23T11:24:42;93399.16;;;17.17;47.20
35888;BME280;21990;42.540;23.496;2023-04-23T11:27:15;93386.59;;;17.45;46.90
35888;BME280;21990;42.540;23.496;2023-04-23T11:29:43;93390.22;;;17.70;44.88
35888;BME280;21990;42.540;23.496;2023-04-23T11:32:11;93391.63;;;17.79;45.16
35888;BME280;21990;42.540;23.496;2023-04-23T11:34:42;93396.25;;;17.49;43.95
35888;BME280;21990;42.540;23.496;2023-04-23T11:37:12;93389.91;;;17.34;45.71
35888;BME280;21990;42.540;23.496;2023-04-23T11:39:41;93394.72;;;17.24;45.31
35888;BME280;21990;42.540;23.496;2023-04-23T11:42:11;93382.78;;;17.25;45.51
35888;BME280;21990;42.540;23.496;2023-04-23T11:44:39;93372.06;;;17.33;44.06
35888;BME280;21990;42.540;23.496;2023-04-23T11:47:12;93370.19;;;17.53;45.15
35888;BME280;21990;42.540;23.496;2023-04-23T11:49:39;93359.09;;;17.65;44.45
35888;BME280;21990;42.540;23.496;2023-04-23T11:52:09;93355.44;;;17.89;43.43
35888;BME280;21990;42.540;23.496;2023-04-23T11:54:34;93367.91;;;17.76;42.23
35888;BME280;21990;42.540;23.496;2023-04-23T11:57:01;93348.03;;;17.86;44.22
35888;BME280;21990;42.540;23.496;2023-04-23T11:59:31;93341.44;;;18.00;43.67
35888;BME280;21990;42.540;23.496;2023-04-23T12:01:57;93349.03;;;17.98;42.31
35888;BME280;21990;42.540;23.496;2023-04-23T12:04:25;93332.19;;;18.10;44.33
35888;BME280;21990;42.540;23.496;2023-04-23T12:06:53;93332.00;;;18.25;46.10
35888;BME280;21990;42.540;23.496;2023-04-23T12:09:20;93330.59;;;18.16;43.17
35888;BME280;21990;42.540;23.496;2023-04-23T12:11:46;93332.50;;;18.14;41.75
35888;BME280;21990;42.540;23.496;2023-04-23T12:14:16;93329.88;;;17.81;43.45
35888;BME280;21990;42.540;23.496;2023-04-23T12:16:43;93338.56;;;17.83;42.67
35888;BME280;21990;42.540;23.496;2023-04-23T12:21:49;93326.19;;;17.88;41.10
35888;BME280;21990;42.540;23.496;2023-04-23T12:24:15;93327.09;;;17.74;41.09
35888;BME280;21990;42.540;23.496;2023-04-23T12:26:41;93324.41;;;17.76;39.10
35888;BME280;21990;42.540;23.496;2023-04-23T12:29:12;93314.19;;;17.73;39.31
35888;BME280;21990;42.540;23.496;2023-04-23T12:31:38;93308.22;;;17.95;41.80
35888;BME280;21990;42.540;23.496;2023-04-23T12:34:06;93306.63;;;18.02;40.32
35888;BME280;21990;42.540;23.496;2023-04-23T12:36:33;93302.19;;;18.09;40.49
35888;BME280;21990;42.540;23.496;2023-04-23T12:41:43;93301.09;;;17.87;40.04
35888;BME280;21990;42.540;23.496;2023-04-23T12:44:09;93309.56;;;17.60;39.23
35888;BME280;21990;42.540;23.496;2023-04-23T12:46:34;93308.16;;;17.44;39.95
35888;BME280;21990;42.540;23.496;2023-04-23T12:49:00;93302.28;;;17.25;39.66
35888;BME280;21990;42.540;23.496;2023-04-23T12:51:25;93300.84;;;17.16;40.43
35888;BME280;21990;42.540;23.496;2023-04-23T12:53:51;93304.50;;;17.09;42.42
35888;BME280;21990;42.540;23.496;2023-04-23T12:56:16;93307.22;;;17.24;41.41
35888;BME280;21990;42.540;23.496;2023-04-23T12:58:42;93302.41;;;17.09;40.26
35888;BME280;21990;42.540;23.496;2023-04-23T13:01:07;93302.47;;;17.02;40.87
35888;BME280;21990;42.540;23.496;2023-04-23T13:03:35;93303.06;;;17.00;40.70